Rechercher aéroport 
image banner adimage banner adimage banner ad
image banner ad

KAUN - Auburn Muni

Situé à Auburn, United States

ICAO - AUN, IATA - AUN

Données fournies par Airmate  

Information générale

Coordonnées: N38°57'17" W121°4'54"
Élévation : 1538 feet MSL.
Variation magnétique : 16° East
Voir autres Aéroports à California

Données opérationnelles

Special qualification required
Heure actuelle UTC:
Heure actuelle locale:
Météo
METAR: KAUN 262355Z AUTO 18010KT 10SM CLR 31/03 A2990 RMK A01
Voir NOTAMs / SUP AIP / TFR affectant cet aéroport [VIEW]
Fréquences de communication: [VIEW]

Pistes:

Identifiant RWYQFULongueur (ft)Largeur (ft)SurfaceLDA (ft)
0784°370075ASPH
25264°370075ASPH

Coordonnées de l'aéroport

Adresse: Auburn United States

Autres services d'aviation

Écoles de pilotage

Auburn Avionics

Auburn Avionics
tkpischel@yahoo.com+1(530)885-2642

Mach 5 Aviation, Inc.

Mach 5 Aviation, Inc.

Sunshine Flyers

Sunshine Flyers

Vue satellite de KAUN